createdAt,value
2023-05-06T00:02:09.782Z,7.68
2023-05-06T00:04:41.797Z,7.35
2023-05-06T00:07:16.930Z,9.20
2023-05-06T00:09:46.134Z,7.55
2023-05-06T00:12:17.433Z,8.38
2023-05-06T00:14:48.057Z,7.10
2023-05-06T00:17:16.784Z,6.45
2023-05-06T00:19:45.644Z,6.78
2023-05-06T00:22:14.686Z,6.78
2023-05-06T00:24:45.731Z,6.25
2023-05-06T00:27:14.745Z,6.50
2023-05-06T00:29:43.142Z,6.22
2023-05-06T00:32:14.341Z,6.72
2023-05-06T00:34:45.170Z,7.20
2023-05-06T00:37:15.043Z,6.72
2023-05-06T00:39:43.929Z,6.32
2023-05-06T00:42:17.137Z,7.30
2023-05-06T00:44:47.682Z,7.70
2023-05-06T00:47:18.584Z,7.03
2023-05-06T00:49:51.842Z,7.82
2023-05-06T00:52:23.379Z,7.78
2023-05-06T00:54:55.196Z,6.50
2023-05-06T00:57:24.676Z,7.65
2023-05-06T00:59:55.784Z,7.82
2023-05-06T01:02:28.517Z,7.20
2023-05-06T01:05:06.927Z,6.57
2023-05-06T01:07:47.465Z,7.20
2023-05-06T01:10:24.920Z,8.40
2023-05-06T01:12:56.130Z,6.28
2023-05-06T01:15:51.025Z,6.53
2023-05-06T01:18:23.461Z,5.65
2023-05-06T01:20:53.555Z,6.68
2023-05-06T01:23:22.334Z,5.32
2023-05-06T01:25:53.069Z,6.35
2023-05-06T01:28:23.759Z,6.63
2023-05-06T01:31:06.517Z,5.45
2023-05-06T01:33:42.132Z,5.70
2023-05-06T01:36:23.906Z,6.05
2023-05-06T01:39:09.744Z,5.95
2023-05-06T01:41:41.256Z,6.63
2023-05-06T01:44:12.508Z,7.25
2023-05-06T01:46:46.173Z,6.25
2023-05-06T01:49:15.991Z,6.93
2023-05-06T01:51:50.836Z,6.00
2023-05-06T01:54:20.087Z,7.35
2023-05-06T01:56:49.477Z,6.60
2023-05-06T01:59:20.092Z,5.75
2023-05-06T02:01:51.634Z,5.97
2023-05-06T02:04:25.866Z,6.18
2023-05-06T02:06:59.533Z,6.55
2023-05-06T02:09:33.656Z,8.60
2023-05-06T02:12:06.335Z,7.07
2023-05-06T02:14:37.953Z,7.35
2023-05-06T02:17:09.239Z,7.10
2023-05-06T02:19:37.767Z,7.38
2023-05-06T02:22:06.182Z,7.25
2023-05-06T02:24:36.294Z,6.80
2023-05-06T02:27:05.197Z,7.40
2023-05-06T02:29:35.303Z,7.05
2023-05-06T02:32:04.758Z,7.25
2023-05-06T02:34:36.757Z,8.13
2023-05-06T02:37:07.224Z,7.07
2023-05-06T02:39:39.004Z,6.60
2023-05-06T02:42:07.387Z,7.72
2023-05-06T02:44:39.254Z,7.63
2023-05-06T02:47:07.495Z,6.57
2023-05-06T02:49:36.065Z,7.93
2023-05-06T02:52:04.980Z,7.45
2023-05-06T02:54:34.375Z,8.27
2023-05-06T02:57:03.757Z,7.85
2023-05-06T02:59:34.005Z,7.78
2023-05-06T03:02:03.201Z,7.63
2023-05-06T03:04:34.241Z,7.45
2023-05-06T03:07:03.573Z,7.60
2023-05-06T03:09:32.620Z,7.80
2023-05-06T03:12:02.090Z,7.57
2023-05-06T03:14:33.816Z,7.72
2023-05-06T03:17:04.460Z,7.22
2023-05-06T03:19:38.338Z,9.13
2023-05-06T03:22:09.236Z,8.07
2023-05-06T03:24:43.198Z,7.40
2023-05-06T03:27:13.145Z,7.65
2023-05-06T03:29:44.151Z,7.82
2023-05-06T03:32:17.831Z,6.90
2023-05-06T03:34:47.805Z,7.10
2023-05-06T03:37:20.542Z,6.67
2023-05-06T03:39:53.918Z,8.30
2023-05-06T03:42:27.192Z,6.47
2023-05-06T03:44:55.907Z,6.57
2023-05-06T03:47:25.298Z,8.57
2023-05-06T03:49:56.515Z,7.95
2023-05-06T03:52:25.083Z,6.93
2023-05-06T03:54:54.125Z,7.43
2023-05-06T03:57:25.223Z,7.00
2023-05-06T03:59:56.288Z,6.45
2023-05-06T04:02:26.575Z,7.28
2023-05-06T04:04:55.389Z,7.75
2023-05-06T04:07:24.525Z,7.47
2023-05-06T04:09:53.036Z,7.25
2023-05-06T04:12:24.527Z,7.10
2023-05-06T04:14:54.119Z,8.85
2023-05-06T04:17:24.067Z,7.90
2023-05-06T04:19:53.793Z,8.10
2023-05-06T04:22:22.649Z,8.63
2023-05-06T04:24:51.774Z,8.25
2023-05-06T04:27:21.672Z,7.57
2023-05-06T04:29:50.251Z,7.88
2023-05-06T04:32:18.840Z,9.23
2023-05-06T04:34:48.123Z,8.10
2023-05-06T04:37:19.038Z,8.68
2023-05-06T04:39:55.846Z,9.13
2023-05-06T04:42:24.640Z,7.72
2023-05-06T04:45:03.606Z,8.20
2023-05-06T04:47:40.166Z,8.70
2023-05-06T04:50:11.583Z,9.80
2023-05-06T04:52:46.157Z,7.78
2023-05-06T04:55:17.901Z,7.45
2023-05-06T04:57:51.280Z,8.68
2023-05-06T05:00:20.355Z,8.13
2023-05-06T05:03:10.936Z,7.40
2023-05-06T05:05:42.435Z,9.02
2023-05-06T05:08:17.288Z,8.38
2023-05-06T05:10:47.529Z,8.15
2023-05-06T05:13:21.497Z,7.65
2023-05-06T05:15:55.035Z,8.85
2023-05-06T05:18:26.366Z,7.22
2023-05-06T05:20:59.623Z,8.63
2023-05-06T05:23:29.806Z,6.93
2023-05-06T05:25:58.804Z,8.73
2023-05-06T05:28:28.343Z,8.02
2023-05-06T05:31:02.750Z,8.77
2023-05-06T05:33:33.602Z,7.45
2023-05-06T05:36:08.007Z,7.68
2023-05-06T05:38:40.218Z,7.85
2023-05-06T05:41:11.834Z,7.18
2023-05-06T05:43:42.840Z,8.43
2023-05-06T05:46:15.091Z,7.82
2023-05-06T05:48:46.762Z,9.15
2023-05-06T05:51:18.438Z,8.52
2023-05-06T05:53:48.390Z,8.15
2023-05-06T05:56:18.654Z,7.63
2023-05-06T05:58:48.482Z,7.68
2023-05-06T06:01:17.624Z,9.00
2023-05-06T06:03:49.252Z,7.28
2023-05-06T06:06:17.942Z,7.93
2023-05-06T06:08:49.213Z,8.52
2023-05-06T06:11:17.968Z,8.73
2023-05-06T06:13:47.697Z,8.57
2023-05-06T06:16:19.327Z,8.35
2023-05-06T06:18:51.624Z,7.18
2023-05-06T06:21:21.402Z,8.25
2023-05-06T06:23:53.106Z,7.15
2023-05-06T06:26:22.965Z,7.43
2023-05-06T06:28:52.855Z,7.38
2023-05-06T06:31:24.624Z,7.32
2023-05-06T06:33:57.570Z,7.85
2023-05-06T06:36:26.858Z,7.97
2023-05-06T06:38:57.081Z,7.10
2023-05-06T06:41:25.635Z,8.45
2023-05-06T06:43:54.348Z,7.82
2023-05-06T06:46:27.442Z,5.90
2023-05-06T06:48:55.729Z,6.00
2023-05-06T06:51:24.409Z,6.78
2023-05-06T06:53:57.582Z,6.10
2023-05-06T06:56:26.823Z,5.50
2023-05-06T06:58:57.949Z,5.70
2023-05-06T07:01:34.053Z,6.35
2023-05-06T07:04:02.705Z,5.40
2023-05-06T07:06:34.539Z,5.15
2023-05-06T07:09:05.205Z,5.95
2023-05-06T07:11:38.362Z,5.70
2023-05-06T07:14:09.249Z,4.95
2023-05-06T07:16:37.613Z,4.72
2023-05-06T07:19:07.384Z,4.47
2023-05-06T07:21:35.803Z,5.18
2023-05-06T07:24:05.100Z,4.28
2023-05-06T07:26:38.866Z,4.32
2023-05-06T07:29:07.501Z,3.65
2023-05-06T07:31:36.361Z,4.90
2023-05-06T07:34:07.721Z,3.92
2023-05-06T07:36:43.576Z,3.13
2023-05-06T07:39:13.376Z,3.45
2023-05-06T07:41:44.229Z,2.72
2023-05-06T07:44:12.547Z,3.70
2023-05-06T07:46:41.131Z,3.03
2023-05-06T07:49:09.537Z,3.20
2023-05-06T07:51:37.837Z,3.03
2023-05-06T07:54:08.218Z,2.88
2023-05-06T07:56:39.139Z,3.83
2023-05-06T07:59:08.191Z,3.00
2023-05-06T08:01:36.766Z,3.55
2023-05-06T08:04:05.932Z,2.83
2023-05-06T08:06:36.987Z,2.70
2023-05-06T08:09:11.333Z,2.67
2023-05-06T08:11:41.460Z,2.50
2023-05-06T08:14:12.184Z,2.90
2023-05-06T08:16:40.743Z,2.05
2023-05-06T08:19:09.578Z,2.83
2023-05-06T08:21:40.069Z,1.23
2023-05-06T08:24:15.068Z,1.63
2023-05-06T08:26:43.645Z,2.20
2023-05-06T08:29:14.819Z,1.40
2023-05-06T08:31:48.177Z,0.88
2023-05-06T08:34:18.533Z,1.30
2023-05-06T08:36:49.539Z,1.35
2023-05-06T08:39:18.268Z,1.33
2023-05-06T08:41:51.297Z,1.58
2023-05-06T08:44:24.219Z,1.20
2023-05-06T08:46:55.590Z,1.20
2023-05-06T08:49:24.160Z,1.13
2023-05-06T08:51:56.786Z,1.00
2023-05-06T08:54:28.665Z,1.77
2023-05-06T08:56:58.660Z,3.30
2023-05-06T08:59:30.475Z,1.00
2023-05-06T09:02:01.297Z,0.90
2023-05-06T09:04:46.848Z,0.75
2023-05-06T09:07:16.909Z,0.75
2023-05-06T09:09:49.453Z,0.77
2023-05-06T09:12:19.677Z,1.23
2023-05-06T09:14:50.903Z,1.27
2023-05-06T09:17:23.874Z,1.20
2023-05-06T09:19:54.249Z,0.90
2023-05-06T09:22:23.609Z,0.70
2023-05-06T09:24:56.673Z,0.65
2023-05-06T09:27:25.687Z,0.90
2023-05-06T09:30:02.975Z,0.90
2023-05-06T09:32:50.761Z,0.98
2023-05-06T09:35:19.537Z,0.60
2023-05-06T09:37:48.504Z,1.05
2023-05-06T09:40:17.056Z,0.80
2023-05-06T09:42:46.269Z,0.50
2023-05-06T09:45:16.898Z,0.73
2023-05-06T09:47:55.487Z,0.98
2023-05-06T09:50:25.809Z,0.63
2023-05-06T09:52:56.017Z,0.80
2023-05-06T09:55:26.770Z,0.73
2023-05-06T09:57:58.686Z,0.90
2023-05-06T10:00:29.043Z,0.90
2023-05-06T10:03:14.913Z,1.08
2023-05-06T10:05:47.069Z,0.60
2023-05-06T10:08:18.538Z,0.63
2023-05-06T10:10:49.759Z,1.00
2023-05-06T10:13:18.694Z,1.08
2023-05-06T10:15:48.931Z,0.60
2023-05-06T10:18:18.953Z,0.65
2023-05-06T10:20:49.180Z,1.10
2023-05-06T10:23:23.208Z,0.95
2023-05-06T10:25:53.561Z,0.90
2023-05-06T10:28:31.613Z,1.05
2023-05-06T10:31:00.518Z,0.60
2023-05-06T10:33:32.579Z,0.80
2023-05-06T10:36:04.112Z,0.95
2023-05-06T10:38:41.255Z,0.68
2023-05-06T10:41:10.623Z,1.17
2023-05-06T10:43:42.722Z,0.88
2023-05-06T10:46:16.556Z,0.60
2023-05-06T10:49:11.139Z,0.98
2023-05-06T10:51:49.373Z,1.05
2023-05-06T10:54:20.527Z,0.73
2023-05-06T10:56:51.553Z,0.70
2023-05-06T10:59:23.365Z,0.90
2023-05-06T11:02:08.382Z,1.08
2023-05-06T11:04:38.246Z,1.10
2023-05-06T11:07:14.337Z,1.52
2023-05-06T11:10:04.457Z,1.23
2023-05-06T11:12:50.389Z,1.20
2023-05-06T11:15:20.076Z,2.45
2023-05-06T11:17:48.399Z,1.48
2023-05-06T11:20:19.748Z,1.10
2023-05-06T11:22:47.961Z,1.40
2023-05-06T11:25:16.043Z,1.25
2023-05-06T11:27:44.942Z,0.52
2023-05-06T11:30:17.368Z,1.00
2023-05-06T11:33:08.824Z,0.80
2023-05-06T11:35:40.609Z,1.05
2023-05-06T11:38:11.215Z,0.70
2023-05-06T11:40:42.426Z,0.85
2023-05-06T11:43:19.920Z,1.10
2023-05-06T11:45:51.969Z,0.68
2023-05-06T11:48:20.616Z,0.70
2023-05-06T11:50:49.790Z,1.02
2023-05-06T11:53:21.401Z,0.75
2023-05-06T11:55:53.667Z,0.75
2023-05-06T11:58:27.254Z,0.65
2023-05-06T12:01:01.045Z,0.50
2023-05-06T12:03:39.681Z,0.73
2023-05-06T12:06:08.152Z,0.68
2023-05-06T12:08:37.278Z,0.93
2023-05-06T12:11:09.305Z,0.90
2023-05-06T12:13:41.284Z,0.60
2023-05-06T12:16:12.065Z,0.75
2023-05-06T12:18:40.724Z,0.80
2023-05-06T12:21:09.602Z,2.85
2023-05-06T12:23:50.998Z,1.77
2023-05-06T12:26:20.312Z,0.80
2023-05-06T12:29:04.069Z,0.68
2023-05-06T12:31:36.218Z,0.60
2023-05-06T12:34:07.001Z,0.60
2023-05-06T12:36:40.399Z,0.65
2023-05-06T12:39:10.446Z,0.50
2023-05-06T12:41:40.777Z,0.52
2023-05-06T12:44:27.774Z,0.82
2023-05-06T12:46:57.144Z,0.50
2023-05-06T12:49:25.761Z,0.70
2023-05-06T12:52:12.435Z,0.70
2023-05-06T12:54:40.920Z,0.50
2023-05-06T12:57:09.430Z,0.70
2023-05-06T12:59:38.679Z,0.50
2023-05-06T13:02:07.458Z,0.60
2023-05-06T13:04:37.569Z,0.47
2023-05-06T13:07:06.139Z,0.40
2023-05-06T13:09:36.821Z,0.55
2023-05-06T13:12:05.393Z,0.50
2023-05-06T13:14:34.543Z,0.60
2023-05-06T13:17:06.789Z,0.57
2023-05-06T13:19:36.614Z,1.05
2023-05-06T13:22:05.721Z,0.50
2023-05-06T13:24:36.462Z,0.40
2023-05-06T13:27:04.880Z,0.80
2023-05-06T13:29:34.441Z,0.80
2023-05-06T13:32:04.718Z,0.40
2023-05-06T13:34:35.937Z,0.40
2023-05-06T13:37:04.985Z,0.77
2023-05-06T13:39:33.592Z,0.50
2023-05-06T13:42:05.407Z,0.50
2023-05-06T13:44:38.735Z,0.38
2023-05-06T13:47:10.481Z,0.50
2023-05-06T13:49:42.285Z,0.38
2023-05-06T13:52:11.312Z,0.35
2023-05-06T13:54:39.781Z,1.00
2023-05-06T13:57:11.964Z,3.22
2023-05-06T13:59:40.773Z,0.50
2023-05-06T14:02:10.000Z,1.23
2023-05-06T14:04:38.433Z,0.70
2023-05-06T14:07:06.926Z,0.85
2023-05-06T14:09:44.220Z,0.50
2023-05-06T14:12:16.203Z,0.70
2023-05-06T14:14:48.312Z,0.50
2023-05-06T14:17:19.308Z,0.70
2023-05-06T14:19:50.185Z,0.63
2023-05-06T14:22:20.810Z,1.17
2023-05-06T14:24:49.096Z,0.40
2023-05-06T14:27:18.070Z,0.50
2023-05-06T14:29:47.966Z,0.45
2023-05-06T14:32:19.340Z,0.40
2023-05-06T14:34:48.946Z,1.23
2023-05-06T14:37:22.057Z,0.77
2023-05-06T14:39:51.137Z,0.98
2023-05-06T14:42:19.791Z,0.50
2023-05-06T14:44:50.561Z,0.40
2023-05-06T14:47:21.622Z,0.73
2023-05-06T14:49:52.848Z,0.50
2023-05-06T14:52:24.234Z,0.40
2023-05-06T14:54:52.771Z,0.90
2023-05-06T14:57:21.725Z,0.70
2023-05-06T14:59:51.192Z,0.50
2023-05-06T15:02:22.965Z,0.40
2023-05-06T15:04:51.733Z,0.40
2023-05-06T15:07:23.002Z,0.50
2023-05-06T15:09:52.811Z,0.40
2023-05-06T15:12:22.057Z,0.60
2023-05-06T15:14:51.333Z,0.90
2023-05-06T15:17:28.617Z,0.40
2023-05-06T15:19:59.867Z,2.00
2023-05-06T15:22:29.464Z,0.57
2023-05-06T15:24:58.175Z,0.60
2023-05-06T15:27:27.472Z,0.50
2023-05-06T15:29:58.175Z,0.68
2023-05-06T15:32:29.838Z,0.75
2023-05-06T15:34:59.803Z,0.70
2023-05-06T15:37:28.290Z,0.60
2023-05-06T15:39:57.196Z,0.80
2023-05-06T15:42:26.722Z,0.70
2023-05-06T15:44:55.378Z,0.75
2023-05-06T15:47:24.640Z,0.80
2023-05-06T15:49:55.073Z,0.85
2023-05-06T15:52:25.939Z,0.80
2023-05-06T15:54:59.738Z,0.73
2023-05-06T15:57:33.105Z,0.80
2023-05-06T16:02:52.435Z,0.65
2023-05-06T16:05:20.891Z,0.70
2023-05-06T16:07:49.681Z,0.80
2023-05-06T16:10:24.136Z,1.10
2023-05-06T16:12:52.957Z,1.08
2023-05-06T16:15:23.731Z,1.00
2023-05-06T16:17:52.220Z,1.60
2023-05-06T16:20:21.122Z,1.33
2023-05-06T16:22:52.167Z,0.90
2023-05-06T16:25:21.333Z,0.82
2023-05-06T16:27:50.175Z,1.00
2023-05-06T16:30:27.702Z,0.70
2023-05-06T16:33:03.955Z,0.77
2023-05-06T16:35:35.382Z,0.75
2023-05-06T16:38:04.236Z,0.80
2023-05-06T16:40:40.681Z,0.57
2023-05-06T16:43:09.825Z,0.70
2023-05-06T16:45:45.144Z,0.82
2023-05-06T16:48:14.525Z,1.10
2023-05-06T16:50:43.576Z,0.77
2023-05-06T16:53:14.712Z,0.77
2023-05-06T16:55:46.674Z,1.02
2023-05-06T16:58:15.470Z,0.98
2023-05-06T17:00:44.266Z,1.17
2023-05-06T17:03:28.534Z,0.80
2023-05-06T17:05:57.344Z,0.77
2023-05-06T17:08:26.866Z,0.90
2023-05-06T17:10:56.191Z,0.77
2023-05-06T17:13:24.641Z,0.68
2023-05-06T17:15:54.138Z,0.80
2023-05-06T17:18:25.039Z,0.73
2023-05-06T17:20:56.571Z,0.70
2023-05-06T17:23:25.960Z,0.60
2023-05-06T17:25:56.484Z,0.60
2023-05-06T17:28:25.963Z,0.50
2023-05-06T17:30:55.013Z,0.50
2023-05-06T17:33:27.947Z,0.75
2023-05-06T17:35:59.293Z,0.75
2023-05-06T17:38:27.902Z,0.57
2023-05-06T17:40:58.912Z,0.82
2023-05-06T17:43:31.201Z,3.20
2023-05-06T17:46:00.254Z,1.25
2023-05-06T17:48:28.459Z,1.00
2023-05-06T17:51:05.181Z,1.05
2023-05-06T17:53:34.136Z,0.85
2023-05-06T17:56:02.732Z,0.85
2023-05-06T17:58:32.053Z,0.98
2023-05-06T18:01:03.149Z,0.73
2023-05-06T18:03:40.378Z,0.98
2023-05-06T18:06:12.217Z,0.77
2023-05-06T18:08:41.321Z,0.85
2023-05-06T18:11:09.654Z,0.82
2023-05-06T18:13:42.073Z,0.88
2023-05-06T18:16:11.114Z,1.20
2023-05-06T18:18:47.233Z,0.80
2023-05-06T18:21:15.590Z,1.05
2023-05-06T18:23:48.526Z,0.77
2023-05-06T18:26:35.394Z,0.85
2023-05-06T18:29:09.256Z,0.85
2023-05-06T18:31:38.425Z,0.90
2023-05-06T18:34:10.738Z,0.70
2023-05-06T18:36:39.536Z,1.10
2023-05-06T18:39:10.094Z,0.65
2023-05-06T18:41:41.254Z,1.10
2023-05-06T18:44:09.918Z,2.47
2023-05-06T18:46:38.889Z,1.85
2023-05-06T18:49:08.245Z,3.83
2023-05-06T18:51:36.840Z,2.70
2023-05-06T18:54:07.017Z,1.70
2023-05-06T18:56:37.924Z,1.40
2023-05-06T18:59:06.387Z,1.10
2023-05-06T19:01:37.508Z,1.10
2023-05-06T19:04:07.011Z,1.17
2023-05-06T19:06:39.391Z,1.17
2023-05-06T19:09:09.016Z,1.10
2023-05-06T19:11:38.305Z,1.33
2023-05-06T19:14:06.936Z,1.15
2023-05-06T19:16:35.567Z,1.10
2023-05-06T19:19:07.313Z,1.38
2023-05-06T19:21:44.465Z,1.00
2023-05-06T19:24:13.236Z,1.10
2023-05-06T19:26:41.730Z,1.27
2023-05-06T19:29:14.770Z,1.00
2023-05-06T19:31:45.518Z,1.40
2023-05-06T19:34:13.813Z,0.88
2023-05-06T19:36:45.830Z,1.00
2023-05-06T19:39:19.463Z,1.17
2023-05-06T19:41:47.968Z,1.00
2023-05-06T19:44:17.284Z,1.05
2023-05-06T19:46:46.231Z,1.50
2023-05-06T19:49:15.020Z,1.50
2023-05-06T19:51:44.115Z,0.98
2023-05-06T19:54:12.892Z,0.90
2023-05-06T19:56:41.900Z,1.30
2023-05-06T19:59:12.916Z,1.17
2023-05-06T20:01:41.621Z,1.05
2023-05-06T20:04:10.537Z,1.13
2023-05-06T20:06:39.238Z,1.05
2023-05-06T20:09:10.293Z,1.17
2023-05-06T20:11:41.096Z,0.93
2023-05-06T20:14:10.143Z,1.30
2023-05-06T20:16:38.914Z,1.10
2023-05-06T20:19:08.141Z,1.17
2023-05-06T20:21:36.889Z,1.10
2023-05-06T20:24:06.711Z,1.00
2023-05-06T20:26:37.280Z,1.20
2023-05-06T20:29:08.291Z,1.15
2023-05-06T20:31:36.666Z,1.00
2023-05-06T20:34:06.296Z,1.25
2023-05-06T20:36:37.199Z,1.63
2023-05-06T20:39:09.933Z,0.98
2023-05-06T20:41:38.482Z,2.05
2023-05-06T20:44:07.458Z,0.80
2023-05-06T20:46:38.449Z,1.00
2023-05-06T20:49:10.920Z,1.17
2023-05-06T20:51:39.457Z,1.15
2023-05-06T20:54:08.714Z,0.90
2023-05-06T20:56:37.268Z,1.20
2023-05-06T20:59:08.255Z,0.98
2023-05-06T21:01:37.342Z,0.98
2023-05-06T21:04:08.359Z,1.05
2023-05-06T21:06:36.796Z,0.77
2023-05-06T21:09:06.860Z,1.10
2023-05-06T21:11:36.756Z,0.93
2023-05-06T21:14:05.940Z,0.90
2023-05-06T21:16:35.992Z,0.90
2023-05-06T21:19:05.722Z,1.10
2023-05-06T21:21:34.652Z,1.05
2023-05-06T21:24:03.514Z,1.02
2023-05-06T21:26:36.555Z,1.02
2023-05-06T21:29:08.283Z,0.90
2023-05-06T21:31:36.891Z,0.98
2023-05-06T21:34:10.572Z,1.30
2023-05-06T21:36:41.113Z,1.05
2023-05-06T21:39:13.769Z,1.02
2023-05-06T21:41:44.238Z,1.10
2023-05-06T21:44:12.600Z,1.13
2023-05-06T21:46:41.131Z,0.82
2023-05-06T21:49:12.027Z,1.10
2023-05-06T21:51:40.976Z,1.10
2023-05-06T21:54:09.876Z,1.48
2023-05-06T21:56:40.470Z,0.73
2023-05-06T21:59:13.941Z,0.98
2023-05-06T22:01:42.574Z,1.00
2023-05-06T22:04:13.121Z,1.30
2023-05-06T22:06:44.487Z,1.38
2023-05-06T22:09:12.924Z,1.00
2023-05-06T22:11:41.815Z,1.02
2023-05-06T22:14:14.492Z,1.55
2023-05-06T22:16:45.964Z,0.80
2023-05-06T22:19:17.239Z,1.00
2023-05-06T22:21:46.744Z,1.30
2023-05-06T22:24:15.983Z,1.00
2023-05-06T22:26:44.774Z,1.17
2023-05-06T22:29:13.142Z,1.25
2023-05-06T22:31:41.715Z,1.20
2023-05-06T22:34:12.661Z,1.25
2023-05-06T22:36:43.513Z,1.35
2023-05-06T22:39:12.091Z,1.30
2023-05-06T22:41:42.829Z,1.10
2023-05-06T22:44:13.654Z,1.30
2023-05-06T22:46:42.250Z,1.20
2023-05-06T22:49:11.403Z,1.25
2023-05-06T22:51:39.828Z,1.65
2023-05-06T22:54:09.601Z,1.10
2023-05-06T22:56:39.298Z,1.48
2023-05-06T22:59:08.401Z,1.42
2023-05-06T23:01:39.970Z,1.30
2023-05-06T23:04:10.772Z,1.30
2023-05-06T23:06:42.383Z,1.63
2023-05-06T23:09:11.371Z,1.52
2023-05-06T23:11:42.060Z,1.58
2023-05-06T23:14:10.360Z,1.20
2023-05-06T23:16:39.321Z,1.17
2023-05-06T23:19:13.548Z,1.75
2023-05-06T23:21:43.762Z,1.35
2023-05-06T23:24:12.696Z,1.33
2023-05-06T23:26:41.062Z,1.10
2023-05-06T23:29:10.107Z,1.45
2023-05-06T23:31:40.653Z,1.30
2023-05-06T23:34:11.391Z,1.60
2023-05-06T23:36:40.910Z,1.55
2023-05-06T23:39:12.229Z,1.15
2023-05-06T23:41:41.329Z,1.20
2023-05-06T23:44:11.943Z,1.30
2023-05-06T23:46:40.359Z,1.50
2023-05-06T23:49:08.542Z,2.22
2023-05-06T23:51:36.950Z,1.20
2023-05-06T23:54:07.904Z,1.10
2023-05-06T23:56:40.086Z,1.70
2023-05-06T23:59:08.520Z,1.40
